sensor_id;sensor_type;location;lat;lon;timestamp;P1;durP1;ratioP1;P2;durP2;ratioP2
56333;SDS011;42240;53.626;55.886;2023-05-07T00:01:31;0.20;;;0.20;;
56333;SDS011;42240;53.626;55.886;2023-05-07T00:03:04;0.10;;;0.10;;
56333;SDS011;42240;53.626;55.886;2023-05-07T00:04:38;0.10;;;0.10;;
56333;SDS011;42240;53.626;55.886;2023-05-07T00:06:11;0.20;;;0.20;;
56333;SDS011;42240;53.626;55.886;2023-05-07T00:07:46;0.17;;;0.17;;
56333;SDS011;42240;53.626;55.886;2023-05-07T00:09:20;0.20;;;0.20;;
56333;SDS011;42240;53.626;55.886;2023-05-07T00:10:53;0.20;;;0.20;;
56333;SDS011;42240;53.626;55.886;2023-05-07T00:12:27;0.10;;;0.10;;
56333;SDS011;42240;53.626;55.886;2023-05-07T00:14:00;0.10;;;0.10;;
56333;SDS011;42240;53.626;55.886;2023-05-07T00:15:34;0.20;;;0.20;;
56333;SDS011;42240;53.626;55.886;2023-05-07T00:17:07;0.20;;;0.20;;
56333;SDS011;42240;53.626;55.886;2023-05-07T00:18:41;0.10;;;0.10;;
56333;SDS011;42240;53.626;55.886;2023-05-07T00:20:14;0.20;;;0.20;;
56333;SDS011;42240;53.626;55.886;2023-05-07T00:21:48;0.20;;;0.20;;
56333;SDS011;42240;53.626;55.886;2023-05-07T00:23:22;0.20;;;0.20;;
56333;SDS011;42240;53.626;55.886;2023-05-07T00:24:56;0.20;;;0.20;;
56333;SDS011;42240;53.626;55.886;2023-05-07T00:26:29;0.20;;;0.20;;
56333;SDS011;42240;53.626;55.886;2023-05-07T00:28:03;0.20;;;0.20;;
56333;SDS011;42240;53.626;55.886;2023-05-07T00:29:36;0.13;;;0.13;;
56333;SDS011;42240;53.626;55.886;2023-05-07T00:31:10;0.10;;;0.10;;
56333;SDS011;42240;53.626;55.886;2023-05-07T00:32:43;0.10;;;0.10;;
56333;SDS011;42240;53.626;55.886;2023-05-07T00:34:18;0.20;;;0.20;;
56333;SDS011;42240;53.626;55.886;2023-05-07T00:35:54;0.10;;;0.10;;
56333;SDS011;42240;53.626;55.886;2023-05-07T00:37:28;0.20;;;0.20;;
56333;SDS011;42240;53.626;55.886;2023-05-07T00:39:01;0.10;;;0.10;;
56333;SDS011;42240;53.626;55.886;2023-05-07T00:40:36;0.20;;;0.20;;
56333;SDS011;42240;53.626;55.886;2023-05-07T00:42:09;0.10;;;0.10;;
56333;SDS011;42240;53.626;55.886;2023-05-07T00:43:42;0.20;;;0.20;;
56333;SDS011;42240;53.626;55.886;2023-05-07T00:45:16;0.20;;;0.20;;
56333;SDS011;42240;53.626;55.886;2023-05-07T00:46:49;0.20;;;0.20;;
56333;SDS011;42240;53.626;55.886;2023-05-07T00:48:23;0.10;;;0.10;;
56333;SDS011;42240;53.626;55.886;2023-05-07T00:49:57;0.20;;;0.20;;
56333;SDS011;42240;53.626;55.886;2023-05-07T00:51:31;0.20;;;0.20;;
56333;SDS011;42240;53.626;55.886;2023-05-07T00:53:06;0.20;;;0.20;;
56333;SDS011;42240;53.626;55.886;2023-05-07T00:54:42;0.10;;;0.10;;
56333;SDS011;42240;53.626;55.886;2023-05-07T00:56:16;0.10;;;0.10;;
56333;SDS011;42240;53.626;55.886;2023-05-07T00:57:50;0.17;;;0.17;;
56333;SDS011;42240;53.626;55.886;2023-05-07T00:59:24;0.20;;;0.20;;
56333;SDS011;42240;53.626;55.886;2023-05-07T01:00:59;0.10;;;0.10;;
56333;SDS011;42240;53.626;55.886;2023-05-07T01:02:33;0.20;;;0.20;;
56333;SDS011;42240;53.626;55.886;2023-05-07T01:04:07;0.20;;;0.20;;
56333;SDS011;42240;53.626;55.886;2023-05-07T01:05:43;0.17;;;0.17;;
56333;SDS011;42240;53.626;55.886;2023-05-07T01:07:19;0.10;;;0.10;;
56333;SDS011;42240;53.626;55.886;2023-05-07T01:08:52;0.17;;;0.17;;
56333;SDS011;42240;53.626;55.886;2023-05-07T01:10:29;0.20;;;0.20;;
56333;SDS011;42240;53.626;55.886;2023-05-07T01:12:03;0.20;;;0.20;;
56333;SDS011;42240;53.626;55.886;2023-05-07T01:13:37;0.10;;;0.10;;
56333;SDS011;42240;53.626;55.886;2023-05-07T01:15:11;0.15;;;0.15;;
56333;SDS011;42240;53.626;55.886;2023-05-07T01:16:46;0.20;;;0.20;;
56333;SDS011;42240;53.626;55.886;2023-05-07T01:18:25;0.10;;;0.10;;
56333;SDS011;42240;53.626;55.886;2023-05-07T01:19:59;0.10;;;0.10;;
56333;SDS011;42240;53.626;55.886;2023-05-07T01:21:33;0.20;;;0.20;;
56333;SDS011;42240;53.626;55.886;2023-05-07T01:23:11;0.17;;;0.17;;
56333;SDS011;42240;53.626;55.886;2023-05-07T01:24:45;0.10;;;0.10;;
56333;SDS011;42240;53.626;55.886;2023-05-07T01:26:20;0.10;;;0.10;;
56333;SDS011;42240;53.626;55.886;2023-05-07T01:27:54;0.13;;;0.13;;
56333;SDS011;42240;53.626;55.886;2023-05-07T01:29:32;0.10;;;0.10;;
56333;SDS011;42240;53.626;55.886;2023-05-07T01:31:05;0.10;;;0.10;;
56333;SDS011;42240;53.626;55.886;2023-05-07T01:32:48;0.10;;;0.10;;
56333;SDS011;42240;53.626;55.886;2023-05-07T01:34:25;0.10;;;0.10;;
56333;SDS011;42240;53.626;55.886;2023-05-07T01:35:59;0.10;;;0.10;;
56333;SDS011;42240;53.626;55.886;2023-05-07T01:37:36;0.10;;;0.10;;
56333;SDS011;42240;53.626;55.886;2023-05-07T01:39:10;0.10;;;0.10;;
56333;SDS011;42240;53.626;55.886;2023-05-07T01:40:43;0.10;;;0.10;;
56333;SDS011;42240;53.626;55.886;2023-05-07T01:42:17;0.10;;;0.10;;
56333;SDS011;42240;53.626;55.886;2023-05-07T01:43:50;0.10;;;0.10;;
56333;SDS011;42240;53.626;55.886;2023-05-07T01:45:26;0.00;;;0.00;;
56333;SDS011;42240;53.626;55.886;2023-05-07T01:47:01;0.10;;;0.10;;
56333;SDS011;42240;53.626;55.886;2023-05-07T01:48:36;0.10;;;0.10;;
56333;SDS011;42240;53.626;55.886;2023-05-07T01:50:10;0.10;;;0.10;;
56333;SDS011;42240;53.626;55.886;2023-05-07T01:51:45;0.10;;;0.10;;
56333;SDS011;42240;53.626;55.886;2023-05-07T01:53:18;0.10;;;0.10;;
56333;SDS011;42240;53.626;55.886;2023-05-07T01:54:52;0.00;;;0.00;;
56333;SDS011;42240;53.626;55.886;2023-05-07T01:56:25;0.10;;;0.10;;
56333;SDS011;42240;53.626;55.886;2023-05-07T01:57:59;0.05;;;0.05;;
56333;SDS011;42240;53.626;55.886;2023-05-07T01:59:33;0.10;;;0.10;;
56333;SDS011;42240;53.626;55.886;2023-05-07T02:01:06;0.00;;;0.00;;
56333;SDS011;42240;53.626;55.886;2023-05-07T02:02:40;0.10;;;0.10;;
56333;SDS011;42240;53.626;55.886;2023-05-07T02:04:21;0.10;;;0.10;;
56333;SDS011;42240;53.626;55.886;2023-05-07T02:05:56;0.03;;;0.03;;
56333;SDS011;42240;53.626;55.886;2023-05-07T02:07:36;0.10;;;0.10;;
56333;SDS011;42240;53.626;55.886;2023-05-07T02:09:10;0.10;;;0.10;;
56333;SDS011;42240;53.626;55.886;2023-05-07T02:10:46;0.00;;;0.00;;
56333;SDS011;42240;53.626;55.886;2023-05-07T02:12:20;0.00;;;0.00;;
56333;SDS011;42240;53.626;55.886;2023-05-07T02:13:53;0.00;;;0.00;;
56333;SDS011;42240;53.626;55.886;2023-05-07T02:15:26;0.00;;;0.00;;
56333;SDS011;42240;53.626;55.886;2023-05-07T02:17:01;0.10;;;0.10;;
56333;SDS011;42240;53.626;55.886;2023-05-07T02:18:35;0.00;;;0.00;;
56333;SDS011;42240;53.626;55.886;2023-05-07T02:20:08;0.00;;;0.00;;
56333;SDS011;42240;53.626;55.886;2023-05-07T02:21:47;0.00;;;0.00;;
56333;SDS011;42240;53.626;55.886;2023-05-07T02:23:20;0.00;;;0.00;;
56333;SDS011;42240;53.626;55.886;2023-05-07T02:24:54;0.00;;;0.00;;
56333;SDS011;42240;53.626;55.886;2023-05-07T02:26:27;0.00;;;0.00;;
56333;SDS011;42240;53.626;55.886;2023-05-07T02:28:00;0.00;;;0.00;;
56333;SDS011;42240;53.626;55.886;2023-05-07T02:29:57;0.00;;;0.00;;
56333;SDS011;42240;53.626;55.886;2023-05-07T02:31:30;0.00;;;0.00;;
56333;SDS011;42240;53.626;55.886;2023-05-07T02:33:03;0.00;;;0.00;;
56333;SDS011;42240;53.626;55.886;2023-05-07T02:34:37;0.00;;;0.00;;
56333;SDS011;42240;53.626;55.886;2023-05-07T02:36:10;0.00;;;0.00;;
56333;SDS011;42240;53.626;55.886;2023-05-07T02:38:04;0.00;;;0.00;;
56333;SDS011;42240;53.626;55.886;2023-05-07T02:39:38;0.00;;;0.00;;
56333;SDS011;42240;53.626;55.886;2023-05-07T02:41:12;0.00;;;0.00;;
56333;SDS011;42240;53.626;55.886;2023-05-07T02:42:45;0.00;;;0.00;;
56333;SDS011;42240;53.626;55.886;2023-05-07T02:44:18;0.00;;;0.00;;
56333;SDS011;42240;53.626;55.886;2023-05-07T02:46:01;0.00;;;0.00;;
56333;SDS011;42240;53.626;55.886;2023-05-07T02:47:46;0.00;;;0.00;;
56333;SDS011;42240;53.626;55.886;2023-05-07T02:49:20;0.00;;;0.00;;
56333;SDS011;42240;53.626;55.886;2023-05-07T02:50:54;0.00;;;0.00;;
56333;SDS011;42240;53.626;55.886;2023-05-07T02:52:27;0.00;;;0.00;;
56333;SDS011;42240;53.626;55.886;2023-05-07T02:54:00;0.00;;;0.00;;
56333;SDS011;42240;53.626;55.886;2023-05-07T02:55:35;0.00;;;0.00;;
56333;SDS011;42240;53.626;55.886;2023-05-07T02:57:08;0.00;;;0.00;;
56333;SDS011;42240;53.626;55.886;2023-05-07T02:58:42;0.00;;;0.00;;
56333;SDS011;42240;53.626;55.886;2023-05-07T03:00:19;0.00;;;0.00;;
56333;SDS011;42240;53.626;55.886;2023-05-07T03:02:05;0.00;;;0.00;;
56333;SDS011;42240;53.626;55.886;2023-05-07T03:03:39;0.00;;;0.00;;
56333;SDS011;42240;53.626;55.886;2023-05-07T03:05:12;0.00;;;0.00;;
56333;SDS011;42240;53.626;55.886;2023-05-07T03:06:46;0.00;;;0.00;;
56333;SDS011;42240;53.626;55.886;2023-05-07T03:08:20;0.00;;;0.00;;
56333;SDS011;42240;53.626;55.886;2023-05-07T03:09:53;0.00;;;0.00;;
56333;SDS011;42240;53.626;55.886;2023-05-07T03:11:26;0.00;;;0.00;;
56333;SDS011;42240;53.626;55.886;2023-05-07T03:13:00;0.00;;;0.00;;
56333;SDS011;42240;53.626;55.886;2023-05-07T03:14:34;0.00;;;0.00;;
56333;SDS011;42240;53.626;55.886;2023-05-07T03:16:07;0.00;;;0.00;;
56333;SDS011;42240;53.626;55.886;2023-05-07T03:17:40;0.00;;;0.00;;
56333;SDS011;42240;53.626;55.886;2023-05-07T03:19:13;0.00;;;0.00;;
56333;SDS011;42240;53.626;55.886;2023-05-07T03:20:47;0.00;;;0.00;;
56333;SDS011;42240;53.626;55.886;2023-05-07T03:22:22;0.00;;;0.00;;
56333;SDS011;42240;53.626;55.886;2023-05-07T03:23:55;0.00;;;0.00;;
56333;SDS011;42240;53.626;55.886;2023-05-07T03:25:29;0.00;;;0.00;;
56333;SDS011;42240;53.626;55.886;2023-05-07T03:27:06;0.00;;;0.00;;
56333;SDS011;42240;53.626;55.886;2023-05-07T03:28:40;0.00;;;0.00;;
56333;SDS011;42240;53.626;55.886;2023-05-07T03:30:17;0.00;;;0.00;;
56333;SDS011;42240;53.626;55.886;2023-05-07T03:31:50;0.00;;;0.00;;
56333;SDS011;42240;53.626;55.886;2023-05-07T03:33:24;0.00;;;0.00;;
56333;SDS011;42240;53.626;55.886;2023-05-07T03:34:58;0.00;;;0.00;;
56333;SDS011;42240;53.626;55.886;2023-05-07T03:36:31;0.00;;;0.00;;
56333;SDS011;42240;53.626;55.886;2023-05-07T03:38:05;0.00;;;0.00;;
56333;SDS011;42240;53.626;55.886;2023-05-07T03:39:40;0.00;;;0.00;;
56333;SDS011;42240;53.626;55.886;2023-05-07T03:41:14;0.00;;;0.00;;
56333;SDS011;42240;53.626;55.886;2023-05-07T03:42:50;0.00;;;0.00;;
56333;SDS011;42240;53.626;55.886;2023-05-07T03:44:26;0.00;;;0.00;;
56333;SDS011;42240;53.626;55.886;2023-05-07T03:45:59;0.00;;;0.00;;
56333;SDS011;42240;53.626;55.886;2023-05-07T03:47:33;0.00;;;0.00;;
56333;SDS011;42240;53.626;55.886;2023-05-07T03:49:07;0.00;;;0.00;;
56333;SDS011;42240;53.626;55.886;2023-05-07T03:50:41;0.00;;;0.00;;
56333;SDS011;42240;53.626;55.886;2023-05-07T03:52:14;0.00;;;0.00;;
56333;SDS011;42240;53.626;55.886;2023-05-07T03:53:48;0.00;;;0.00;;
56333;SDS011;42240;53.626;55.886;2023-05-07T03:55:21;0.10;;;0.10;;
56333;SDS011;42240;53.626;55.886;2023-05-07T03:56:59;0.00;;;0.00;;
56333;SDS011;42240;53.626;55.886;2023-05-07T03:58:33;0.00;;;0.00;;
56333;SDS011;42240;53.626;55.886;2023-05-07T04:00:11;0.00;;;0.00;;
56333;SDS011;42240;53.626;55.886;2023-05-07T04:01:54;0.10;;;0.10;;
56333;SDS011;42240;53.626;55.886;2023-05-07T04:03:29;0.00;;;0.00;;
56333;SDS011;42240;53.626;55.886;2023-05-07T04:05:04;0.10;;;0.10;;
56333;SDS011;42240;53.626;55.886;2023-05-07T04:06:38;0.10;;;0.10;;
56333;SDS011;42240;53.626;55.886;2023-05-07T04:08:11;0.10;;;0.10;;
56333;SDS011;42240;53.626;55.886;2023-05-07T04:09:50;0.00;;;0.00;;
56333;SDS011;42240;53.626;55.886;2023-05-07T04:11:26;0.03;;;0.03;;
56333;SDS011;42240;53.626;55.886;2023-05-07T04:13:00;0.10;;;0.10;;
56333;SDS011;42240;53.626;55.886;2023-05-07T04:14:33;0.05;;;0.05;;
56333;SDS011;42240;53.626;55.886;2023-05-07T04:16:07;0.00;;;0.00;;
56333;SDS011;42240;53.626;55.886;2023-05-07T04:17:42;0.03;;;0.03;;
56333;SDS011;42240;53.626;55.886;2023-05-07T04:19:17;0.03;;;0.03;;
56333;SDS011;42240;53.626;55.886;2023-05-07T04:20:54;0.10;;;0.10;;
56333;SDS011;42240;53.626;55.886;2023-05-07T04:22:27;0.00;;;0.00;;
56333;SDS011;42240;53.626;55.886;2023-05-07T04:24:02;0.10;;;0.10;;
56333;SDS011;42240;53.626;55.886;2023-05-07T04:25:37;0.00;;;0.00;;
56333;SDS011;42240;53.626;55.886;2023-05-07T04:27:16;0.00;;;0.00;;
56333;SDS011;42240;53.626;55.886;2023-05-07T04:28:49;0.10;;;0.10;;
56333;SDS011;42240;53.626;55.886;2023-05-07T04:30:23;0.10;;;0.10;;
56333;SDS011;42240;53.626;55.886;2023-05-07T04:31:56;0.10;;;0.10;;
56333;SDS011;42240;53.626;55.886;2023-05-07T04:33:32;0.00;;;0.00;;
56333;SDS011;42240;53.626;55.886;2023-05-07T04:35:06;0.10;;;0.10;;
56333;SDS011;42240;53.626;55.886;2023-05-07T04:36:40;0.10;;;0.10;;
56333;SDS011;42240;53.626;55.886;2023-05-07T04:38:17;0.10;;;0.10;;
56333;SDS011;42240;53.626;55.886;2023-05-07T04:39:53;0.00;;;0.00;;
56333;SDS011;42240;53.626;55.886;2023-05-07T04:41:27;0.00;;;0.00;;
56333;SDS011;42240;53.626;55.886;2023-05-07T04:43:01;0.00;;;0.00;;
56333;SDS011;42240;53.626;55.886;2023-05-07T04:44:37;0.00;;;0.00;;
56333;SDS011;42240;53.626;55.886;2023-05-07T04:46:10;0.10;;;0.10;;
56333;SDS011;42240;53.626;55.886;2023-05-07T04:47:44;0.10;;;0.10;;
56333;SDS011;42240;53.626;55.886;2023-05-07T04:49:18;0.10;;;0.10;;
56333;SDS011;42240;53.626;55.886;2023-05-07T04:50:51;0.10;;;0.10;;
56333;SDS011;42240;53.626;55.886;2023-05-07T04:52:25;0.10;;;0.10;;
56333;SDS011;42240;53.626;55.886;2023-05-07T04:53:59;0.10;;;0.10;;
56333;SDS011;42240;53.626;55.886;2023-05-07T04:55:34;0.10;;;0.10;;
56333;SDS011;42240;53.626;55.886;2023-05-07T04:57:08;0.10;;;0.10;;
56333;SDS011;42240;53.626;55.886;2023-05-07T04:58:42;0.10;;;0.10;;
56333;SDS011;42240;53.626;55.886;2023-05-07T05:00:16;0.10;;;0.10;;
56333;SDS011;42240;53.626;55.886;2023-05-07T05:01:54;0.10;;;0.10;;
56333;SDS011;42240;53.626;55.886;2023-05-07T05:03:29;0.10;;;0.10;;
56333;SDS011;42240;53.626;55.886;2023-05-07T05:05:03;0.10;;;0.10;;
56333;SDS011;42240;53.626;55.886;2023-05-07T05:06:37;0.10;;;0.10;;
56333;SDS011;42240;53.626;55.886;2023-05-07T05:08:11;0.10;;;0.10;;
56333;SDS011;42240;53.626;55.886;2023-05-07T05:09:46;0.10;;;0.10;;
56333;SDS011;42240;53.626;55.886;2023-05-07T05:11:20;0.10;;;0.10;;
56333;SDS011;42240;53.626;55.886;2023-05-07T05:12:53;0.10;;;0.10;;
56333;SDS011;42240;53.626;55.886;2023-05-07T05:14:27;0.10;;;0.10;;
56333;SDS011;42240;53.626;55.886;2023-05-07T05:16:02;0.10;;;0.10;;
56333;SDS011;42240;53.626;55.886;2023-05-07T05:17:36;0.10;;;0.10;;
56333;SDS011;42240;53.626;55.886;2023-05-07T05:19:12;0.10;;;0.10;;
56333;SDS011;42240;53.626;55.886;2023-05-07T05:20:48;0.10;;;0.10;;
56333;SDS011;42240;53.626;55.886;2023-05-07T05:22:21;0.10;;;0.10;;
56333;SDS011;42240;53.626;55.886;2023-05-07T05:23:55;0.10;;;0.10;;
56333;SDS011;42240;53.626;55.886;2023-05-07T05:25:30;0.10;;;0.10;;
56333;SDS011;42240;53.626;55.886;2023-05-07T05:27:04;0.10;;;0.10;;
56333;SDS011;42240;53.626;55.886;2023-05-07T05:28:38;0.10;;;0.10;;
56333;SDS011;42240;53.626;55.886;2023-05-07T05:30:11;0.10;;;0.10;;
56333;SDS011;42240;53.626;55.886;2023-05-07T05:31:47;0.10;;;0.10;;
56333;SDS011;42240;53.626;55.886;2023-05-07T05:33:21;0.10;;;0.10;;
56333;SDS011;42240;53.626;55.886;2023-05-07T05:34:54;0.10;;;0.10;;
56333;SDS011;42240;53.626;55.886;2023-05-07T05:36:28;0.20;;;0.20;;
56333;SDS011;42240;53.626;55.886;2023-05-07T05:38:02;0.10;;;0.10;;
56333;SDS011;42240;53.626;55.886;2023-05-07T05:39:37;0.10;;;0.10;;
56333;SDS011;42240;53.626;55.886;2023-05-07T05:41:12;0.10;;;0.10;;
56333;SDS011;42240;53.626;55.886;2023-05-07T05:42:45;0.10;;;0.10;;
56333;SDS011;42240;53.626;55.886;2023-05-07T05:44:20;0.10;;;0.10;;
56333;SDS011;42240;53.626;55.886;2023-05-07T05:45:55;0.10;;;0.10;;
56333;SDS011;42240;53.626;55.886;2023-05-07T05:47:29;0.10;;;0.10;;
56333;SDS011;42240;53.626;55.886;2023-05-07T05:49:02;0.10;;;0.10;;
56333;SDS011;42240;53.626;55.886;2023-05-07T05:50:36;0.10;;;0.10;;
56333;SDS011;42240;53.626;55.886;2023-05-07T05:52:11;0.10;;;0.10;;
56333;SDS011;42240;53.626;55.886;2023-05-07T05:53:50;0.10;;;0.10;;
56333;SDS011;42240;53.626;55.886;2023-05-07T05:55:24;0.10;;;0.10;;
56333;SDS011;42240;53.626;55.886;2023-05-07T05:56:58;0.10;;;0.10;;
56333;SDS011;42240;53.626;55.886;2023-05-07T05:58:32;0.10;;;0.10;;
56333;SDS011;42240;53.626;55.886;2023-05-07T06:00:09;0.10;;;0.10;;
56333;SDS011;42240;53.626;55.886;2023-05-07T06:01:52;0.10;;;0.10;;
56333;SDS011;42240;53.626;55.886;2023-05-07T06:03:26;0.10;;;0.10;;
56333;SDS011;42240;53.626;55.886;2023-05-07T06:05:01;0.10;;;0.10;;
56333;SDS011;42240;53.626;55.886;2023-05-07T06:06:36;0.10;;;0.10;;
56333;SDS011;42240;53.626;55.886;2023-05-07T06:08:09;0.10;;;0.10;;
56333;SDS011;42240;53.626;55.886;2023-05-07T06:09:43;0.10;;;0.10;;
56333;SDS011;42240;53.626;55.886;2023-05-07T06:11:17;0.10;;;0.10;;
56333;SDS011;42240;53.626;55.886;2023-05-07T06:12:51;0.10;;;0.10;;
56333;SDS011;42240;53.626;55.886;2023-05-07T06:14:25;0.10;;;0.10;;
56333;SDS011;42240;53.626;55.886;2023-05-07T06:16:00;0.10;;;0.10;;
56333;SDS011;42240;53.626;55.886;2023-05-07T06:17:34;0.10;;;0.10;;
56333;SDS011;42240;53.626;55.886;2023-05-07T06:19:08;0.10;;;0.10;;
56333;SDS011;42240;53.626;55.886;2023-05-07T06:20:42;0.10;;;0.10;;
56333;SDS011;42240;53.626;55.886;2023-05-07T06:22:23;0.10;;;0.10;;
56333;SDS011;42240;53.626;55.886;2023-05-07T06:23:59;0.10;;;0.10;;
56333;SDS011;42240;53.626;55.886;2023-05-07T06:25:32;0.10;;;0.10;;
56333;SDS011;42240;53.626;55.886;2023-05-07T06:27:06;0.10;;;0.10;;
56333;SDS011;42240;53.626;55.886;2023-05-07T06:28:39;0.10;;;0.10;;
56333;SDS011;42240;53.626;55.886;2023-05-07T06:30:16;0.10;;;0.10;;
56333;SDS011;42240;53.626;55.886;2023-05-07T06:31:53;0.10;;;0.10;;
56333;SDS011;42240;53.626;55.886;2023-05-07T06:33:28;0.10;;;0.10;;
56333;SDS011;42240;53.626;55.886;2023-05-07T06:35:02;0.10;;;0.10;;
56333;SDS011;42240;53.626;55.886;2023-05-07T06:36:35;0.10;;;0.10;;
56333;SDS011;42240;53.626;55.886;2023-05-07T06:38:33;0.10;;;0.10;;
56333;SDS011;42240;53.626;55.886;2023-05-07T06:40:07;0.10;;;0.10;;
56333;SDS011;42240;53.626;55.886;2023-05-07T06:41:43;0.10;;;0.10;;
56333;SDS011;42240;53.626;55.886;2023-05-07T06:43:27;0.10;;;0.10;;
56333;SDS011;42240;53.626;55.886;2023-05-07T06:45:31;0.10;;;0.10;;
56333;SDS011;42240;53.626;55.886;2023-05-07T06:47:05;0.10;;;0.10;;
56333;SDS011;42240;53.626;55.886;2023-05-07T06:48:39;0.10;;;0.10;;
56333;SDS011;42240;53.626;55.886;2023-05-07T06:50:12;0.10;;;0.10;;
56333;SDS011;42240;53.626;55.886;2023-05-07T06:51:46;0.10;;;0.10;;
56333;SDS011;42240;53.626;55.886;2023-05-07T06:53:19;0.10;;;0.10;;
56333;SDS011;42240;53.626;55.886;2023-05-07T06:54:53;0.20;;;0.20;;
56333;SDS011;42240;53.626;55.886;2023-05-07T06:56:28;0.10;;;0.10;;
56333;SDS011;42240;53.626;55.886;2023-05-07T06:58:01;0.10;;;0.10;;
56333;SDS011;42240;53.626;55.886;2023-05-07T06:59:35;0.10;;;0.10;;
56333;SDS011;42240;53.626;55.886;2023-05-07T07:01:08;0.20;;;0.20;;
56333;SDS011;42240;53.626;55.886;2023-05-07T07:02:45;0.10;;;0.10;;
56333;SDS011;42240;53.626;55.886;2023-05-07T07:04:21;0.10;;;0.10;;
56333;SDS011;42240;53.626;55.886;2023-05-07T07:06:05;0.10;;;0.10;;
56333;SDS011;42240;53.626;55.886;2023-05-07T07:07:39;0.13;;;0.13;;
56333;SDS011;42240;53.626;55.886;2023-05-07T07:09:12;0.10;;;0.10;;
56333;SDS011;42240;53.626;55.886;2023-05-07T07:10:46;0.20;;;0.20;;
56333;SDS011;42240;53.626;55.886;2023-05-07T07:12:19;0.10;;;0.10;;
56333;SDS011;42240;53.626;55.886;2023-05-07T07:13:53;0.10;;;0.10;;
56333;SDS011;42240;53.626;55.886;2023-05-07T07:15:27;0.10;;;0.10;;
56333;SDS011;42240;53.626;55.886;2023-05-07T07:17:01;0.17;;;0.17;;
56333;SDS011;42240;53.626;55.886;2023-05-07T07:18:34;0.10;;;0.10;;
56333;SDS011;42240;53.626;55.886;2023-05-07T07:20:09;0.10;;;0.10;;
56333;SDS011;42240;53.626;55.886;2023-05-07T07:21:44;0.10;;;0.10;;
56333;SDS011;42240;53.626;55.886;2023-05-07T07:23:18;0.10;;;0.10;;
56333;SDS011;42240;53.626;55.886;2023-05-07T07:24:51;0.10;;;0.10;;
56333;SDS011;42240;53.626;55.886;2023-05-07T07:26:24;0.10;;;0.10;;
56333;SDS011;42240;53.626;55.886;2023-05-07T07:27:58;0.10;;;0.10;;
56333;SDS011;42240;53.626;55.886;2023-05-07T07:29:32;0.17;;;0.17;;
56333;SDS011;42240;53.626;55.886;2023-05-07T07:31:06;0.20;;;0.20;;
56333;SDS011;42240;53.626;55.886;2023-05-07T07:32:40;0.20;;;0.20;;
56333;SDS011;42240;53.626;55.886;2023-05-07T07:34:13;0.10;;;0.10;;
56333;SDS011;42240;53.626;55.886;2023-05-07T07:35:46;0.10;;;0.10;;
56333;SDS011;42240;53.626;55.886;2023-05-07T07:37:20;0.15;;;0.15;;
56333;SDS011;42240;53.626;55.886;2023-05-07T07:38:53;0.15;;;0.15;;
56333;SDS011;42240;53.626;55.886;2023-05-07T07:40:27;0.10;;;0.10;;
56333;SDS011;42240;53.626;55.886;2023-05-07T07:42:01;0.20;;;0.20;;
56333;SDS011;42240;53.626;55.886;2023-05-07T07:43:35;0.20;;;0.20;;
56333;SDS011;42240;53.626;55.886;2023-05-07T07:45:08;0.20;;;0.20;;
56333;SDS011;42240;53.626;55.886;2023-05-07T07:46:45;0.20;;;0.20;;
56333;SDS011;42240;53.626;55.886;2023-05-07T07:48:19;0.20;;;0.20;;
56333;SDS011;42240;53.626;55.886;2023-05-07T07:49:53;0.10;;;0.10;;
56333;SDS011;42240;53.626;55.886;2023-05-07T07:51:27;0.10;;;0.10;;
56333;SDS011;42240;53.626;55.886;2023-05-07T07:53:00;0.20;;;0.20;;
56333;SDS011;42240;53.626;55.886;2023-05-07T07:54:34;0.20;;;0.20;;
56333;SDS011;42240;53.626;55.886;2023-05-07T07:56:09;0.10;;;0.10;;
56333;SDS011;42240;53.626;55.886;2023-05-07T07:57:42;0.20;;;0.20;;
56333;SDS011;42240;53.626;55.886;2023-05-07T07:59:15;0.10;;;0.10;;
56333;SDS011;42240;53.626;55.886;2023-05-07T08:00:53;0.20;;;0.20;;
56333;SDS011;42240;53.626;55.886;2023-05-07T08:02:29;0.10;;;0.10;;
56333;SDS011;42240;53.626;55.886;2023-05-07T08:04:02;0.20;;;0.20;;
56333;SDS011;42240;53.626;55.886;2023-05-07T08:05:42;0.20;;;0.20;;
56333;SDS011;42240;53.626;55.886;2023-05-07T08:07:15;0.13;;;0.13;;
56333;SDS011;42240;53.626;55.886;2023-05-07T08:08:52;0.10;;;0.10;;
56333;SDS011;42240;53.626;55.886;2023-05-07T08:10:26;0.17;;;0.17;;
56333;SDS011;42240;53.626;55.886;2023-05-07T08:12:06;0.20;;;0.20;;
56333;SDS011;42240;53.626;55.886;2023-05-07T08:13:40;0.20;;;0.20;;
56333;SDS011;42240;53.626;55.886;2023-05-07T08:15:14;0.10;;;0.10;;
56333;SDS011;42240;53.626;55.886;2023-05-07T08:16:49;0.20;;;0.20;;
56333;SDS011;42240;53.626;55.886;2023-05-07T08:18:23;0.10;;;0.10;;
56333;SDS011;42240;53.626;55.886;2023-05-07T08:19:58;0.20;;;0.20;;
56333;SDS011;42240;53.626;55.886;2023-05-07T08:23:06;0.20;;;0.20;;
56333;SDS011;42240;53.626;55.886;2023-05-07T08:24:40;0.10;;;0.10;;
56333;SDS011;42240;53.626;55.886;2023-05-07T08:26:14;0.10;;;0.10;;
56333;SDS011;42240;53.626;55.886;2023-05-07T08:27:47;0.20;;;0.20;;
56333;SDS011;42240;53.626;55.886;2023-05-07T08:29:21;0.15;;;0.15;;
56333;SDS011;42240;53.626;55.886;2023-05-07T08:30:54;0.20;;;0.20;;
56333;SDS011;42240;53.626;55.886;2023-05-07T08:32:29;0.20;;;0.20;;
56333;SDS011;42240;53.626;55.886;2023-05-07T08:34:03;0.10;;;0.10;;
56333;SDS011;42240;53.626;55.886;2023-05-07T08:35:41;0.20;;;0.20;;
56333;SDS011;42240;53.626;55.886;2023-05-07T08:37:16;0.20;;;0.20;;
56333;SDS011;42240;53.626;55.886;2023-05-07T08:38:50;0.15;;;0.15;;
56333;SDS011;42240;53.626;55.886;2023-05-07T08:40:26;0.10;;;0.10;;
56333;SDS011;42240;53.626;55.886;2023-05-07T08:42:03;0.20;;;0.20;;
56333;SDS011;42240;53.626;55.886;2023-05-07T08:43:38;0.10;;;0.10;;
56333;SDS011;42240;53.626;55.886;2023-05-07T08:45:15;0.10;;;0.10;;
56333;SDS011;42240;53.626;55.886;2023-05-07T08:46:51;0.15;;;0.15;;
56333;SDS011;42240;53.626;55.886;2023-05-07T08:48:28;0.20;;;0.20;;
56333;SDS011;42240;53.626;55.886;2023-05-07T08:50:10;0.20;;;0.20;;
56333;SDS011;42240;53.626;55.886;2023-05-07T08:51:45;0.10;;;0.10;;
56333;SDS011;42240;53.626;55.886;2023-05-07T08:53:19;0.15;;;0.15;;
56333;SDS011;42240;53.626;55.886;2023-05-07T08:54:54;0.20;;;0.20;;
56333;SDS011;42240;53.626;55.886;2023-05-07T08:56:29;0.20;;;0.20;;
56333;SDS011;42240;53.626;55.886;2023-05-07T08:58:03;0.20;;;0.20;;
56333;SDS011;42240;53.626;55.886;2023-05-07T08:59:39;0.10;;;0.10;;
56333;SDS011;42240;53.626;55.886;2023-05-07T09:01:14;0.20;;;0.20;;
56333;SDS011;42240;53.626;55.886;2023-05-07T09:02:51;0.20;;;0.20;;
56333;SDS011;42240;53.626;55.886;2023-05-07T09:04:26;0.10;;;0.10;;
56333;SDS011;42240;53.626;55.886;2023-05-07T09:06:00;0.20;;;0.20;;
56333;SDS011;42240;53.626;55.886;2023-05-07T09:07:34;0.20;;;0.20;;
56333;SDS011;42240;53.626;55.886;2023-05-07T09:09:09;0.20;;;0.20;;
56333;SDS011;42240;53.626;55.886;2023-05-07T09:10:42;0.20;;;0.20;;
56333;SDS011;42240;53.626;55.886;2023-05-07T09:12:17;0.20;;;0.20;;
56333;SDS011;42240;53.626;55.886;2023-05-07T09:13:55;0.20;;;0.20;;
56333;SDS011;42240;53.626;55.886;2023-05-07T09:15:30;0.20;;;0.20;;
56333;SDS011;42240;53.626;55.886;2023-05-07T09:17:04;0.10;;;0.10;;
56333;SDS011;42240;53.626;55.886;2023-05-07T09:18:43;0.20;;;0.20;;
56333;SDS011;42240;53.626;55.886;2023-05-07T09:20:18;0.20;;;0.20;;
56333;SDS011;42240;53.626;55.886;2023-05-07T09:22:02;0.20;;;0.20;;
56333;SDS011;42240;53.626;55.886;2023-05-07T09:23:45;0.20;;;0.20;;
56333;SDS011;42240;53.626;55.886;2023-05-07T09:25:30;0.20;;;0.20;;